Time;durP1;ratioP1;P1;durP2;ratioP2;P2;SDS_P1;SDS_P2;PMS_P1;PMS_P2;Temp;Humidity;BMP_temperature;BMP_pressure;BME280_temperature;BME280_humidity;BME280_pressure;Samples;Min_cycle;Max_cycle;Signal;HPM_P1;HPM_P2
2021/06/29 00:01:29;;;;;;;10.18;7.28;;;20.80;75.10;;;;;;5056461;28;20039;-82
2021/06/29 00:03:54;;;;;;;8.93;6.85;;;20.70;75.20;;;;;;5073276;28;20020;-81
2021/06/29 00:06:20;;;;;;;10.23;6.75;;;20.70;75.30;;;;;;5055018;28;20463;-81
2021/06/29 00:08:46;;;;;;;7.50;6.78;;;20.70;75.40;;;;;;5073201;28;20150;-81
2021/06/29 00:11:16;;;;;;;10.20;7.53;;;20.70;75.50;;;;;;5073250;28;20519;-81
2021/06/29 00:13:43;;;;;;;9.90;7.30;;;20.60;75.60;;;;;;5073282;28;20031;-82
2021/06/29 00:16:08;;;;;;;10.40;7.38;;;20.60;75.70;;;;;;5055412;28;20032;-83
2021/06/29 00:18:34;;;;;;;9.32;6.82;;;20.60;75.80;;;;;;5073047;28;20025;-81
2021/06/29 00:21:00;;;;;;;11.40;6.63;;;20.60;75.90;;;;;;5088599;28;20024;-81
2021/06/29 00:23:25;;;;;;;8.32;6.60;;;20.50;75.90;;;;;;5073291;28;20087;-81
2021/06/29 00:25:51;;;;;;;9.50;6.65;;;20.50;75.90;;;;;;5073020;28;20032;-81
2021/06/29 00:28:17;;;;;;;9.90;7.22;;;20.50;75.90;;;;;;5072613;28;20359;-81
2021/06/29 00:30:42;;;;;;;8.02;7.10;;;20.50;76.00;;;;;;5072646;28;20027;-80
2021/06/29 00:33:08;;;;;;;10.05;6.85;;;20.50;76.00;;;;;;5054612;28;20078;-80
2021/06/29 00:35:34;;;;;;;10.43;6.43;;;20.50;76.10;;;;;;5054603;28;20027;-80
2021/06/29 00:38:00;;;;;;;9.45;6.47;;;20.50;76.20;;;;;;5072837;28;20410;-80
2021/06/29 00:40:26;;;;;;;10.73;7.13;;;20.40;76.10;;;;;;5054549;28;20024;-80
2021/06/29 00:42:52;;;;;;;10.88;6.70;;;20.40;76.20;;;;;;5075179;28;20526;-80
2021/06/29 00:45:18;;;;;;;7.30;6.53;;;20.40;76.30;;;;;;5058575;28;20111;-80
2021/06/29 00:47:43;;;;;;;9.00;6.85;;;20.30;76.30;;;;;;5058222;28;20028;-80
2021/06/29 00:50:10;;;;;;;8.45;6.00;;;20.30;76.30;;;;;;5076084;28;20455;-80
2021/06/29 00:52:38;;;;;;;9.38;6.40;;;20.30;76.40;;;;;;5076000;28;20024;-80
2021/06/29 00:55:04;;;;;;;9.25;6.28;;;20.30;76.50;;;;;;5076191;28;20025;-80
2021/06/29 00:57:30;;;;;;;8.38;6.35;;;20.30;76.50;;;;;;5075998;28;20107;-81
2021/06/29 00:59:56;;;;;;;8.18;6.28;;;20.30;76.50;;;;;;5076356;28;20112;-80
2021/06/29 01:02:21;;;;;;;9.13;6.53;;;20.30;76.50;;;;;;5058378;28;20057;-80
2021/06/29 01:04:48;;;;;;;8.57;5.85;;;20.30;76.50;;;;;;5076093;28;20482;-80
2021/06/29 01:07:15;;;;;;;10.25;6.03;;;20.30;76.40;;;;;;5075863;28;20027;-80
2021/06/29 01:09:41;;;;;;;6.85;6.07;;;20.30;76.90;;;;;;5076343;28;20451;-81
2021/06/29 01:12:08;;;;;;;12.10;6.25;;;20.30;76.20;;;;;;5076209;28;20035;-82
2021/06/29 01:14:34;;;;;;;7.75;5.88;;;20.30;76.20;;;;;;5076619;28;20048;-82
2021/06/29 01:17:02;;;;;;;25.10;7.32;;;20.30;76.20;;;;;;5076513;28;20102;-82
2021/06/29 01:22:27;;;;;;;10.18;6.60;;;20.30;76.20;;;;;;5053256;28;20040;-82
2021/06/29 01:24:55;;;;;;;7.70;6.47;;;20.30;76.20;;;;;;5076297;28;20031;-82
2021/06/29 01:32:24;;;;;;;8.93;6.50;;;20.20;76.30;;;;;;5081193;28;20040;-81
2021/06/29 01:34:50;;;;;;;7.30;6.20;;;20.20;76.40;;;;;;5078750;28;20021;-81
2021/06/29 01:37:17;;;;;;;7.28;6.03;;;20.20;76.60;;;;;;5076210;28;20028;-82
2021/06/29 01:39:50;;;;;;;9.18;6.30;;;20.10;76.40;;;;;;5076689;28;20103;-82
2021/06/29 01:42:15;;;;;;;7.07;6.07;;;20.20;76.50;;;;;;5057837;28;20379;-83
2021/06/29 01:44:42;;;;;;;7.00;6.30;;;20.10;76.50;;;;;;5075826;28;20028;-82
2021/06/29 01:47:11;;;;;;;6.28;5.68;;;20.10;76.50;;;;;;5075533;28;20111;-82
2021/06/29 01:49:36;;;;;;;9.68;6.07;;;20.10;76.50;;;;;;5075504;28;20472;-82
2021/06/29 01:52:02;;;;;;;9.32;5.72;;;20.10;76.50;;;;;;5075815;28;20025;-82
2021/06/29 01:54:28;;;;;;;12.52;6.35;;;20.10;76.40;;;;;;5056778;28;20045;-82
2021/06/29 01:56:54;;;;;;;8.80;6.00;;;20.20;76.50;;;;;;5057559;28;20024;-82
2021/06/29 01:59:21;;;;;;;9.43;6.50;;;20.20;76.50;;;;;;5075394;28;20154;-82
2021/06/29 02:01:47;;;;;;;7.78;6.03;;;20.20;76.50;;;;;;5075682;28;20471;-82
2021/06/29 02:04:13;;;;;;;7.15;6.20;;;20.20;76.50;;;;;;5075704;28;20029;-82
2021/06/29 02:06:40;;;;;;;7.70;6.60;;;20.30;76.40;;;;;;5075343;28;20025;-81
2021/06/29 02:09:11;;;;;;;6.90;5.90;;;20.40;76.40;;;;;;5057259;28;20026;-82
2021/06/29 02:11:39;;;;;;;9.90;6.20;;;20.70;76.30;;;;;;5057420;28;20024;-82
2021/06/29 02:14:06;;;;;;;11.57;6.60;;;21.00;75.80;;;;;;5075504;28;20104;-82
2021/06/29 02:16:32;;;;;;;8.20;5.78;;;21.40;75.10;;;;;;5057272;28;20024;-83
2021/06/29 02:18:59;;;;;;;12.77;6.25;;;21.80;74.00;;;;;;5090727;28;20032;-81
2021/06/29 02:21:24;;;;;;;7.43;5.53;;;22.40;72.90;;;;;;5090615;28;20020;-82
2021/06/29 02:23:51;;;;;;;7.22;5.60;;;23.00;71.60;;;;;;5090515;28;20051;-82
2021/06/29 02:26:17;;;;;;;9.57;6.00;;;23.60;70.20;;;;;;5075106;28;20688;-82
2021/06/29 02:28:43;;;;;;;6.85;5.30;;;24.20;68.70;;;;;;5057418;28;20841;-82
2021/06/29 02:31:09;;;;;;;7.30;5.95;;;24.80;67.20;;;;;;5074846;28;20028;-83
2021/06/29 02:33:35;;;;;;;6.85;5.50;;;25.50;65.60;;;;;;5056591;28;20021;-82
2021/06/29 02:36:01;;;;;;;8.68;6.32;;;26.10;64.00;;;;;;5056663;28;20090;-80
2021/06/29 02:38:26;;;;;;;8.50;5.28;;;26.80;62.60;;;;;;5074664;28;20504;-81
2021/06/29 02:40:53;;;;;;;7.90;5.00;;;27.50;61.20;;;;;;5074410;28;20085;-80
2021/06/29 02:43:20;;;;;;;10.23;6.10;;;28.20;59.70;;;;;;5074736;28;20447;-81
2021/06/29 02:45:45;;;;;;;6.95;5.80;;;28.90;58.30;;;;;;5074695;28;20031;-81
2021/06/29 02:48:12;;;;;;;5.57;5.03;;;29.40;57.00;;;;;;5074812;28;20024;-81
2021/06/29 02:50:39;;;;;;;6.22;5.43;;;30.00;55.80;;;;;;5074525;28;20455;-82
2021/06/29 02:53:04;;;;;;;8.27;5.03;;;30.40;54.70;;;;;;5074533;28;20041;-82
2021/06/29 02:55:30;;;;;;;7.22;5.55;;;31.00;53.80;;;;;;5074161;28;20025;-81
2021/06/29 02:57:56;;;;;;;8.02;5.07;;;31.50;53.00;;;;;;5074727;28;20044;-81
2021/06/29 03:00:22;;;;;;;7.20;5.35;;;32.20;51.80;;;;;;5074293;28;20051;-82
2021/06/29 03:02:48;;;;;;;8.05;5.15;;;32.70;50.80;;;;;;5056429;28;20475;-82
2021/06/29 03:05:15;;;;;;;8.20;5.43;;;33.30;49.80;;;;;;5073506;28;20043;-81
2021/06/29 03:07:42;;;;;;;7.30;5.18;;;33.80;48.80;;;;;;5074040;28;20028;-83
2021/06/29 03:10:08;;;;;;;6.50;5.10;;;34.10;47.90;;;;;;5075142;28;20027;-82
2021/06/29 03:12:34;;;;;;;9.20;4.80;;;34.10;47.40;;;;;;5056604;28;20032;-83
2021/06/29 03:15:01;;;;;;;9.77;5.80;;;34.30;47.30;;;;;;5056507;28;20031;-83
2021/06/29 03:17:28;;;;;;;13.63;5.88;;;34.70;47.10;;;;;;5074581;28;20070;-83
2021/06/29 03:19:54;;;;;;;9.27;5.65;;;35.30;46.50;;;;;;5057275;28;20028;-83
2021/06/29 03:22:20;;;;;;;7.47;6.03;;;35.80;45.80;;;;;;5072669;28;20081;-83
2021/06/29 03:24:47;;;;;;;7.10;5.75;;;36.30;45.30;;;;;;5055871;28;20360;-83
2021/06/29 03:27:12;;;;;;;6.40;5.78;;;36.30;44.40;;;;;;5073968;28;20455;-83
2021/06/29 03:29:39;;;;;;;10.52;6.30;;;35.80;44.30;;;;;;5073600;28;20035;-82
2021/06/29 03:32:06;;;;;;;6.97;5.90;;;35.30;44.70;;;;;;5073262;28;20024;-82
2021/06/29 03:34:32;;;;;;;7.45;5.60;;;34.90;45.40;;;;;;5073402;28;20017;-82
2021/06/29 03:37:00;;;;;;;6.45;5.95;;;34.70;45.80;;;;;;5073947;28;20078;-81
2021/06/29 03:39:25;;;;;;;9.95;6.75;;;34.40;45.80;;;;;;5073450;28;20858;-82
2021/06/29 03:41:51;;;;;;;7.50;6.25;;;34.20;46.30;;;;;;5055533;28;20131;-82
2021/06/29 03:44:17;;;;;;;8.18;5.38;;;34.00;47.10;;;;;;5073377;28;20025;-81
2021/06/29 03:46:43;;;;;;;7.70;5.60;;;33.50;46.50;;;;;;5055187;28;20028;-81
2021/06/29 03:49:08;;;;;;;6.85;5.80;;;32.90;47.10;;;;;;5073259;28;20087;-81
2021/06/29 03:51:34;;;;;;;10.60;5.32;;;32.50;47.90;;;;;;5072874;28;20021;-81
2021/06/29 03:54:00;;;;;;;8.30;5.35;;;32.40;48.20;;;;;;5072881;28;20395;-81
2021/06/29 03:56:29;;;;;;;7.72;5.53;;;32.80;48.70;;;;;;5054869;28;20360;-80
2021/06/29 03:59:06;;;;;;;7.15;4.85;;;33.70;48.00;;;;;;5094395;28;20048;-80
2021/06/29 04:01:32;;;;;;;5.90;5.25;;;35.00;46.70;;;;;;5095357;28;20026;-80
2021/06/29 04:03:59;;;;;;;5.30;4.80;;;36.00;45.70;;;;;;5075964;28;20392;-81
2021/06/29 04:06:32;;;;;;;8.93;5.30;;;37.10;44.50;;;;;;5073436;28;20025;-81
2021/06/29 04:08:59;;;;;;;7.00;5.50;;;37.90;43.20;;;;;;5055078;28;20035;-81
2021/06/29 04:11:26;;;;;;;7.47;4.80;;;38.30;42.40;;;;;;5072830;28;20017;-82
2021/06/29 04:13:53;;;;;;;8.80;4.95;;;38.80;41.90;;;;;;5072970;28;20056;-81
2021/06/29 04:16:19;;;;;;;6.85;5.43;;;39.30;41.30;;;;;;5072883;28;20444;-84
2021/06/29 04:18:45;;;;;;;11.35;5.47;;;39.80;40.80;;;;;;5059309;28;20035;-84
2021/06/29 04:21:12;;;;;;;6.20;5.45;;;40.30;40.40;;;;;;5059162;28;20119;-84
2021/06/29 04:23:39;;;;;;;9.00;5.40;;;40.50;39.70;;;;;;5058642;28;20070;-84
2021/06/29 04:26:05;;;;;;;8.32;5.35;;;40.40;39.40;;;;;;5058920;28;20122;-84
2021/06/29 04:28:31;;;;;;;6.60;5.45;;;40.50;39.50;;;;;;5077607;28;20021;-84
2021/06/29 04:30:57;;;;;;;8.55;5.68;;;40.50;39.30;;;;;;5076997;28;20025;-83
2021/06/29 04:33:23;;;;;;;7.75;6.15;;;40.00;39.20;;;;;;5060469;28;20035;-82
2021/06/29 04:35:49;;;;;;;8.13;5.30;;;39.60;39.70;;;;;;5060226;28;20467;-84
2021/06/29 04:38:15;;;;;;;7.43;5.53;;;39.80;40.00;;;;;;5058851;28;20491;-84
2021/06/29 04:40:41;;;;;;;9.07;5.50;;;40.40;39.90;;;;;;5076094;28;20112;-84
2021/06/29 04:43:07;;;;;;;11.55;5.85;;;41.20;39.50;;;;;;5076557;28;20112;-84
2021/06/29 04:45:33;;;;;;;8.80;5.47;;;42.10;38.80;;;;;;5058108;28;20403;-84
2021/06/29 04:47:59;;;;;;;8.15;5.50;;;43.00;38.20;;;;;;5058577;28;20032;-85
2021/06/29 04:50:25;;;;;;;7.97;5.70;;;43.40;37.30;;;;;;5076435;28;20104;-85
2021/06/29 04:52:54;;;;;;;7.13;5.82;;;43.30;37.00;;;;;;5058757;28;20048;-83
2021/06/29 04:55:20;;;;;;;13.13;5.70;;;43.30;36.70;;;;;;5058393;28;20414;-85
2021/06/29 04:57:46;;;;;;;8.73;5.88;;;43.10;36.70;;;;;;5076485;28;20021;-85
2021/06/29 05:00:16;;;;;;;10.52;5.57;;;42.60;36.60;;;;;;5076497;28;20035;-85
2021/06/29 05:02:43;;;;;;;7.72;5.25;;;42.10;36.80;;;;;;5058095;28;20067;-85
2021/06/29 05:05:10;;;;;;;7.15;5.07;;;41.70;37.20;;;;;;5076122;28;20108;-85
2021/06/29 05:07:56;;;;;;;8.48;5.00;;;41.40;37.40;;;;;;5079812;28;20090;-89
2021/06/29 05:10:24;;;;;;;6.00;5.40;;;41.30;37.60;;;;;;5077106;28;20083;-89
2021/06/29 05:12:50;;;;;;;10.32;6.43;;;41.10;37.80;;;;;;5092104;28;20017;-90
2021/06/29 05:15:16;;;;;;;6.93;5.20;;;40.60;37.90;;;;;;5058306;28;20069;-89
2021/06/29 05:17:42;;;;;;;11.35;5.70;;;40.30;38.30;;;;;;5058226;28;20030;-88
2021/06/29 05:20:08;;;;;;;8.82;5.28;;;39.70;38.50;;;;;;5076077;28;20125;-89
2021/06/29 05:22:34;;;;;;;5.78;5.05;;;39.20;38.90;;;;;;5076432;28;20459;-89
2021/06/29 05:25:02;;;;;;;10.35;6.00;;;38.60;39.40;;;;;;5075910;28;20032;-89
2021/06/29 05:27:28;;;;;;;12.35;5.50;;;38.00;40.00;;;;;;5076515;28;20418;-88
2021/06/29 05:29:53;;;;;;;8.55;6.63;;;37.50;40.60;;;;;;5076166;28;20020;-89
2021/06/29 05:32:19;;;;;;;15.77;7.28;;;36.90;41.00;;;;;;5075189;28;20017;-90
2021/06/29 05:34:45;;;;;;;10.70;5.95;;;36.50;41.70;;;;;;5075744;28;20025;-89
2021/06/29 05:37:10;;;;;;;6.00;5.40;;;36.10;42.30;;;;;;5074845;28;20491;-89
2021/06/29 05:39:36;;;;;;;8.85;5.63;;;35.80;42.80;;;;;;5073890;28;20108;-88
2021/06/29 05:42:02;;;;;;;11.35;6.63;;;35.60;43.80;;;;;;5073866;28;20068;-87
2021/06/29 05:44:27;;;;;;;14.63;7.07;;;35.80;43.50;;;;;;5074625;28;20017;-87
2021/06/29 05:46:55;;;;;;;11.95;6.63;;;36.30;43.50;;;;;;5074922;28;20085;-87
2021/06/29 05:49:21;;;;;;;8.60;6.40;;;37.00;43.10;;;;;;5074479;28;20099;-88
2021/06/29 05:51:47;;;;;;;8.60;5.95;;;37.80;42.40;;;;;;5056995;28;20063;-90
2021/06/29 05:54:17;;;;;;;10.82;6.78;;;38.80;41.60;;;;;;5074941;28;20032;-89
2021/06/29 05:56:43;;;;;;;11.95;6.45;;;39.80;40.40;;;;;;5077986;28;20037;-89
2021/06/29 05:59:10;;;;;;;10.40;6.25;;;41.00;39.70;;;;;;5056511;28;20035;-88
2021/06/29 06:01:36;;;;;;;6.55;5.50;;;42.10;38.70;;;;;;5074833;28;20048;-88
2021/06/29 06:04:05;;;;;;;6.40;5.80;;;43.10;37.90;;;;;;5075302;28;20036;-86
2021/06/29 06:06:31;;;;;;;8.75;7.00;;;43.90;37.10;;;;;;5075374;28;20107;-89
2021/06/29 06:08:56;;;;;;;6.95;5.25;;;44.70;36.30;;;;;;5075084;28;20040;-88
2021/06/29 06:11:24;;;;;;;11.27;6.15;;;45.50;35.70;;;;;;5075405;28;20020;-86
2021/06/29 06:13:50;;;;;;;7.85;5.00;;;46.20;35.10;;;;;;5075032;28;20047;-88
2021/06/29 06:16:16;;;;;;;14.73;7.32;;;46.60;34.40;;;;;;5056371;28;20056;-88
2021/06/29 06:18:43;;;;;;;7.00;6.00;;;46.80;34.20;;;;;;5073878;28;20513;-87
2021/06/29 06:21:09;;;;;;;15.52;5.47;;;47.10;33.90;;;;;;5075024;28;20027;-88
2021/06/29 06:23:35;;;;;;;5.93;5.32;;;47.30;33.60;;;;;;5075272;28;20021;-87
2021/06/29 06:26:01;;;;;;;6.53;5.20;;;47.50;33.30;;;;;;5076719;28;20066;-86
2021/06/29 06:28:27;;;;;;;10.38;6.72;;;47.80;33.00;;;;;;5075894;28;20024;-88
2021/06/29 06:30:54;;;;;;;9.82;5.60;;;48.10;33.10;;;;;;5074521;28;20032;-89
2021/06/29 06:33:21;;;;;;;10.63;5.65;;;48.40;33.00;;;;;;5074765;28;20024;-89
2021/06/29 06:35:47;;;;;;;7.95;5.28;;;48.60;32.70;;;;;;5075511;28;20016;-88
2021/06/29 06:38:13;;;;;;;6.55;4.97;;;48.60;32.40;;;;;;5076598;28;20036;-89
2021/06/29 06:40:39;;;;;;;7.95;5.53;;;48.30;32.50;;;;;;5075524;28;20429;-89
2021/06/29 06:43:05;;;;;;;9.18;5.13;;;48.30;32.40;;;;;;5056921;28;20032;-88
2021/06/29 06:45:31;;;;;;;9.80;5.50;;;48.30;32.40;;;;;;5074028;28;20394;-88
2021/06/29 06:47:56;;;;;;;15.02;7.15;;;48.30;32.30;;;;;;5074364;28;20025;-88
2021/06/29 06:50:23;;;;;;;11.02;5.30;;;48.40;32.30;;;;;;5057230;28;20030;-90
2021/06/29 06:52:51;;;;;;;8.98;6.05;;;48.40;32.20;;;;;;5073629;28;20028;-90
2021/06/29 06:55:24;;;;;;;5.88;5.00;;;48.50;32.00;;;;;;5074195;28;20021;-89
2021/06/29 06:57:54;;;;;;;17.38;5.03;;;48.60;31.90;;;;;;5056590;28;20127;-90
2021/06/29 07:00:21;;;;;;;12.30;5.32;;;48.80;32.00;;;;;;5074970;28;20020;-90
2021/06/29 07:02:47;;;;;;;7.13;5.63;;;48.60;31.80;;;;;;5074380;28;20406;-89
2021/06/29 07:05:13;;;;;;;8.05;4.70;;;48.40;31.90;;;;;;5073169;28;20025;-89
2021/06/29 07:07:39;;;;;;;5.20;4.80;;;48.40;31.80;;;;;;5077218;28;20036;-90
2021/06/29 07:10:06;;;;;;;5.28;4.75;;;48.40;31.50;;;;;;5075103;28;20023;-90
2021/06/29 07:12:32;;;;;;;7.00;5.03;;;48.10;31.60;;;;;;5056533;28;20020;-89
2021/06/29 07:14:58;;;;;;;12.45;5.57;;;48.00;31.90;;;;;;5074071;28;20020;-91
2021/06/29 07:17:24;;;;;;;5.97;4.95;;;47.90;32.10;;;;;;5078007;28;20031;-89
2021/06/29 07:19:51;;;;;;;9.35;5.07;;;47.60;31.90;;;;;;5060924;28;20024;-88
2021/06/29 07:22:18;;;;;;;8.30;4.47;;;47.40;31.90;;;;;;5064150;28;20033;-85
2021/06/29 07:24:44;;;;;;;12.15;4.60;;;47.30;31.80;;;;;;5064589;28;20021;-91
2021/06/29 07:27:11;;;;;;;6.60;4.05;;;47.30;31.90;;;;;;5075941;28;20029;-88
2021/06/29 07:29:37;;;;;;;6.05;4.75;;;47.20;31.80;;;;;;5077472;28;20024;-89
2021/06/29 07:32:03;;;;;;;7.30;4.03;;;47.00;31.60;;;;;;5077882;28;20032;-90
2021/06/29 07:34:29;;;;;;;9.70;4.35;;;46.90;31.80;;;;;;5073750;28;20039;-88
2021/06/29 07:36:55;;;;;;;5.60;3.97;;;46.70;31.90;;;;;;5073471;28;20103;-89
2021/06/29 07:39:21;;;;;;;5.90;4.03;;;46.70;32.20;;;;;;5072539;28;20025;-90
2021/06/29 07:41:47;;;;;;;4.90;4.40;;;46.50;31.80;;;;;;5074018;28;20036;-89
2021/06/29 07:44:13;;;;;;;5.63;4.30;;;46.00;31.70;;;;;;5074483;28;20168;-88
2021/06/29 07:46:38;;;;;;;9.52;4.38;;;45.30;31.70;;;;;;5079158;28;20028;-86
2021/06/29 07:49:04;;;;;;;6.20;4.50;;;44.60;32.00;;;;;;5073650;28;20026;-91
2021/06/29 07:51:30;;;;;;;7.07;4.75;;;44.00;32.60;;;;;;5054970;28;20066;-88
2021/06/29 07:53:56;;;;;;;7.45;5.20;;;43.80;33.40;;;;;;5055109;28;20479;-89
2021/06/29 07:56:22;;;;;;;7.68;4.93;;;43.50;33.90;;;;;;5074483;28;20028;-88
2021/06/29 07:58:48;;;;;;;8.98;5.20;;;43.20;34.30;;;;;;5074532;28;20032;-89
2021/06/29 08:01:18;;;;;;;12.15;6.10;;;42.90;34.50;;;;;;5054947;28;20463;-89
2021/06/29 08:03:45;;;;;;;6.47;4.90;;;42.50;34.90;;;;;;5055413;28;20368;-88
2021/06/29 08:06:11;;;;;;;10.20;5.18;;;42.50;35.00;;;;;;5079732;28;20258;-88
2021/06/29 08:08:37;;;;;;;7.93;4.90;;;42.40;35.10;;;;;;5096012;28;20068;-87
2021/06/29 08:11:10;;;;;;;7.07;4.97;;;42.40;35.50;;;;;;5089696;28;20044;-90
2021/06/29 08:13:36;;;;;;;6.20;5.35;;;42.30;35.40;;;;;;5082077;28;20026;-92
2021/06/29 08:16:03;;;;;;;6.05;4.72;;;42.10;35.50;;;;;;5058855;28;20032;-89
2021/06/29 08:18:29;;;;;;;7.85;4.90;;;41.80;35.70;;;;;;5073798;28;20029;-89
2021/06/29 08:20:56;;;;;;;12.02;4.75;;;41.70;36.10;;;;;;5055189;28;20119;-89
2021/06/29 08:23:26;;;;;;;8.20;6.63;;;41.60;36.30;;;;;;5074356;28;20078;-89
2021/06/29 08:25:52;;;;;;;8.43;4.60;;;41.60;36.10;;;;;;5055712;28;20119;-89
2021/06/29 08:28:18;;;;;;;10.10;4.20;;;41.60;36.00;;;;;;5074715;28;20079;-89
2021/06/29 08:30:44;;;;;;;7.70;4.60;;;41.40;35.50;;;;;;5055809;28;20021;-88
2021/06/29 08:33:11;;;;;;;7.07;4.40;;;41.40;35.50;;;;;;5055828;28;20032;-87
2021/06/29 08:35:39;;;;;;;14.30;4.05;;;41.10;35.30;;;;;;5072555;28;20044;-88
2021/06/29 08:38:06;;;;;;;9.85;4.18;;;40.70;35.40;;;;;;5072717;28;20485;-89
2021/06/29 08:40:36;;;;;;;9.90;4.35;;;40.20;36.00;;;;;;5073246;28;20390;-86
2021/06/29 08:43:04;;;;;;;6.93;3.70;;;39.90;36.50;;;;;;5072450;28;20048;-88
2021/06/29 08:45:31;;;;;;;7.45;4.38;;;39.60;36.80;;;;;;5072249;28;20024;-88
2021/06/29 08:47:58;;;;;;;10.15;5.50;;;39.40;37.20;;;;;;5073391;28;20100;-88
2021/06/29 08:50:25;;;;;;;11.25;5.22;;;39.10;38.20;;;;;;5054474;28;20406;-88
2021/06/29 08:52:50;;;;;;;9.05;4.30;;;38.90;38.10;;;;;;5072608;28;20021;-89
2021/06/29 08:55:16;;;;;;;5.55;4.45;;;38.70;38.40;;;;;;5072708;28;20048;-90
2021/06/29 08:57:42;;;;;;;15.82;6.50;;;38.60;38.70;;;;;;5072046;28;20391;-88
2021/06/29 09:00:11;;;;;;;12.45;5.85;;;38.30;38.70;;;;;;5054055;28;20078;-82
2021/06/29 09:02:40;;;;;;;5.95;4.18;;;38.00;39.20;;;;;;5071970;28;20436;-85
2021/06/29 09:05:24;;;;;;;6.13;4.90;;;37.90;39.00;;;;;;5075221;28;20115;-86
2021/06/29 09:08:22;;;;;;;8.23;3.88;;;37.90;38.50;;;;;;5075172;28;20046;-86
2021/06/29 09:11:13;;;;;;;10.25;3.78;;;37.70;38.30;;;;;;5044059;28;20456;-86
2021/06/29 09:13:40;;;;;;;3.95;3.22;;;37.60;37.80;;;;;;5056514;28;20025;-87
2021/06/29 09:16:07;;;;;;;5.28;3.78;;;37.50;37.90;;;;;;5054956;28;20025;-85
2021/06/29 09:18:40;;;;;;;7.15;4.30;;;37.30;38.30;;;;;;5054926;28;20028;-85
2021/06/29 09:21:11;;;;;;;8.48;5.35;;;37.30;39.10;;;;;;5055355;28;20111;-87
2021/06/29 09:23:53;;;;;;;5.72;3.60;;;37.10;39.10;;;;;;5055928;28;20021;-86
2021/06/29 09:26:26;;;;;;;4.28;3.88;;;37.10;39.10;;;;;;5054967;28;20075;-86
2021/06/29 09:29:00;;;;;;;8.52;4.10;;;37.00;39.30;;;;;;5055035;28;20078;-86
2021/06/29 09:31:31;;;;;;;7.90;3.95;;;37.00;39.60;;;;;;5054806;28;20071;-86
2021/06/29 09:34:07;;;;;;;6.22;4.28;;;36.80;40.20;;;;;;5055429;28;20021;-85
2021/06/29 09:36:36;;;;;;;7.57;4.20;;;36.80;39.60;;;;;;5053765;28;20029;-85
2021/06/29 09:39:08;;;;;;;7.32;4.07;;;36.70;39.70;;;;;;5055154;28;20378;-85
2021/06/29 09:41:36;;;;;;;7.35;4.03;;;36.60;39.70;;;;;;5054892;28;20025;-85
2021/06/29 09:44:18;;;;;;;12.93;4.80;;;36.50;39.50;;;;;;5036910;28;20021;-86
2021/06/29 09:46:45;;;;;;;6.78;3.97;;;36.50;39.40;;;;;;5054903;28;20115;-85
2021/06/29 09:49:15;;;;;;;6.28;3.47;;;36.50;39.20;;;;;;5053229;28;20055;-86
2021/06/29 09:51:45;;;;;;;9.98;3.88;;;36.50;38.90;;;;;;5054596;28;20040;-86
2021/06/29 09:54:14;;;;;;;6.95;3.30;;;36.50;38.70;;;;;;5054304;28;20052;-85
2021/06/29 09:56:44;;;;;;;5.88;3.35;;;36.40;38.70;;;;;;5054369;28;20021;-85
2021/06/29 09:59:20;;;;;;;5.05;3.38;;;36.10;39.30;;;;;;5054545;28;20033;-84
2021/06/29 10:01:46;;;;;;;4.72;3.70;;;35.80;39.10;;;;;;5054395;28;20024;-86
2021/06/29 10:04:12;;;;;;;9.60;3.90;;;35.60;39.70;;;;;;5055610;28;20111;-86
2021/06/29 10:06:39;;;;;;;5.15;4.43;;;35.40;39.80;;;;;;5054385;28;20858;-85
2021/06/29 10:09:12;;;;;;;6.72;6.00;;;35.30;40.00;;;;;;5054617;28;20090;-86
2021/06/29 10:11:43;;;;;;;3.78;3.40;;;34.90;40.10;;;;;;5054982;28;20064;-84
2021/06/29 10:14:16;;;;;;;8.10;3.37;;;34.80;40.30;;;;;;5054054;28;20532;-86
2021/06/29 10:16:47;;;;;;;4.72;3.67;;;34.70;40.60;;;;;;5054506;28;20637;-85
2021/06/29 10:19:25;;;;;;;7.35;4.55;;;34.60;40.70;;;;;;5054423;28;20044;-86
2021/06/29 10:21:54;;;;;;;4.32;3.50;;;34.60;40.80;;;;;;5053579;28;20150;-86
2021/06/29 10:24:24;;;;;;;7.05;3.53;;;34.70;40.80;;;;;;5054327;28;20081;-86
2021/06/29 10:26:55;;;;;;;7.43;3.60;;;34.70;40.80;;;;;;5055439;28;20047;-85
2021/06/29 10:29:21;;;;;;;4.35;3.90;;;34.70;40.90;;;;;;5054013;28;20040;-85
2021/06/29 10:31:49;;;;;;;7.30;3.88;;;34.80;41.00;;;;;;5052354;28;20360;-79
2021/06/29 10:34:16;;;;;;;6.97;3.80;;;34.80;41.00;;;;;;5051923;28;20044;-81
2021/06/29 10:36:48;;;;;;;14.68;4.93;;;34.90;41.80;;;;;;5052221;28;20371;-78
2021/06/29 10:39:17;;;;;;;10.23;3.60;;;34.80;41.80;;;;;;5051915;28;20025;-79
2021/06/29 10:42:02;;;;;;;6.95;4.00;;;34.60;42.00;;;;;;5052447;28;20029;-78
2021/06/29 10:44:43;;;;;;;8.30;4.03;;;34.40;42.50;;;;;;5052237;28;20032;-80
2021/06/29 10:47:29;;;;;;;7.43;4.85;;;34.10;43.00;;;;;;5052189;28;20445;-82
2021/06/29 10:49:57;;;;;;;5.10;4.53;;;33.70;43.00;;;;;;5052253;28;20123;-79
2021/06/29 10:52:22;;;;;;;6.43;4.40;;;33.40;43.40;;;;;;5052237;28;20028;-79
2021/06/29 10:54:56;;;;;;;29.05;5.68;;;33.00;44.00;;;;;;5052910;28;20049;-82
2021/06/29 10:57:27;;;;;;;11.90;5.22;;;32.70;47.80;;;;;;5052730;28;20764;-80
2021/06/29 10:59:58;;;;;;;16.63;5.85;;;32.20;50.50;;;;;;5066960;28;20033;-80
2021/06/29 11:02:38;;;;;;;11.95;5.80;;;31.80;51.20;;;;;;5071893;28;20096;-81
2021/06/29 11:05:05;;;;;;;10.20;4.35;;;31.20;52.40;;;;;;5070686;28;20052;-81
2021/06/29 11:07:30;;;;;;;5.10;3.47;;;30.60;51.60;;;;;;5072017;28;20033;-81
2021/06/29 11:09:59;;;;;;;9.25;3.70;;;30.10;50.90;;;;;;5071885;28;20471;-81
2021/06/29 11:12:27;;;;;;;10.13;4.90;;;29.60;51.10;;;;;;5072478;28;20031;-81
2021/06/29 11:14:55;;;;;;;8.30;4.80;;;29.10;52.60;;;;;;5072209;28;20424;-82
2021/06/29 11:17:23;;;;;;;9.98;4.50;;;28.70;53.80;;;;;;5072873;28;20800;-78
2021/06/29 11:20:00;;;;;;;11.80;3.80;;;28.40;55.00;;;;;;5072327;28;20032;-77
2021/06/29 11:23:00;;;;;;;8.60;3.95;;;28.00;54.90;;;;;;5072033;28;20032;-78
2021/06/29 11:25:35;;;;;;;11.15;3.85;;;27.80;55.40;;;;;;5072666;28;20159;-78
2021/06/29 11:28:08;;;;;;;7.72;3.90;;;27.60;55.80;;;;;;5071152;28;20378;-79
2021/06/29 11:30:52;;;;;;;10.02;5.00;;;27.50;56.30;;;;;;5072378;28;20016;-79
2021/06/29 11:33:41;;;;;;;10.05;5.57;;;27.40;58.00;;;;;;5072356;28;20047;-79
2021/06/29 11:36:08;;;;;;;8.55;4.82;;;27.30;58.60;;;;;;5053851;28;20048;-79
2021/06/29 11:38:37;;;;;;;5.38;4.50;;;27.30;58.20;;;;;;5072004;28;20032;-79
2021/06/29 11:41:25;;;;;;;11.73;4.70;;;27.30;58.20;;;;;;5072206;28;20109;-80
2021/06/29 11:43:52;;;;;;;11.85;5.13;;;27.30;58.70;;;;;;5071264;28;20100;-80
2021/06/29 11:46:52;;;;;;;4.97;4.22;;;27.30;59.10;;;;;;5071368;28;20116;-81
2021/06/29 11:49:31;;;;;;;5.68;5.05;;;27.40;59.50;;;;;;5053450;28;20020;-81
2021/06/29 11:52:06;;;;;;;8.32;4.65;;;27.40;59.80;;;;;;5071412;28;20074;-80
2021/06/29 11:54:37;;;;;;;13.52;4.53;;;27.40;59.50;;;;;;5071146;28;20444;-80
2021/06/29 11:57:15;;;;;;;9.98;4.72;;;27.40;59.50;;;;;;5053387;28;20029;-81
2021/06/29 11:59:41;;;;;;;6.47;4.40;;;27.40;59.70;;;;;;5071623;28;20024;-81
2021/06/29 12:02:09;;;;;;;6.13;4.38;;;27.40;59.50;;;;;;5071490;28;20028;-81
2021/06/29 12:05:05;;;;;;;8.20;4.07;;;27.40;59.00;;;;;;5071558;28;20100;-80
2021/06/29 12:07:41;;;;;;;5.80;4.32;;;27.40;59.00;;;;;;5071329;28;20036;-81
2021/06/29 12:10:18;;;;;;;6.18;4.50;;;27.40;59.00;;;;;;5053357;28;20017;-81
2021/06/29 12:12:47;;;;;;;6.57;4.30;;;27.40;59.90;;;;;;5071339;28;20028;-81
2021/06/29 12:15:17;;;;;;;4.85;4.20;;;27.40;59.40;;;;;;5071108;28;20024;-81
2021/06/29 12:18:04;;;;;;;5.88;4.88;;;27.40;58.90;;;;;;5071229;28;20463;-80
2021/06/29 12:20:31;;;;;;;9.07;4.72;;;27.30;59.40;;;;;;5071893;28;20115;-81
2021/06/29 12:22:57;;;;;;;9.57;4.63;;;27.30;59.90;;;;;;5071589;28;20028;-82
2021/06/29 12:25:27;;;;;;;6.63;5.38;;;27.30;60.70;;;;;;5071775;28;20530;-83
2021/06/29 12:27:54;;;;;;;12.98;7.35;;;27.30;61.10;;;;;;5053714;28;20040;-84
2021/06/29 12:30:43;;;;;;;12.48;5.55;;;27.30;61.90;;;;;;5071100;28;20100;-82
2021/06/29 12:33:16;;;;;;;7.43;5.53;;;27.30;62.30;;;;;;5070817;28;20027;-81
2021/06/29 12:35:46;;;;;;;9.52;5.45;;;27.30;62.50;;;;;;5070859;28;20027;-80
2021/06/29 12:38:15;;;;;;;9.00;5.90;;;27.40;63.50;;;;;;5072585;28;20025;-80
2021/06/29 12:40:48;;;;;;;11.27;7.60;;;27.40;64.30;;;;;;5074823;28;20365;-82
2021/06/29 12:43:33;;;;;;;8.77;5.90;;;27.60;65.00;;;;;;5074881;28;20111;-83
2021/06/29 12:46:17;;;;;;;11.13;6.65;;;27.70;64.90;;;;;;5074260;28;20396;-80
2021/06/29 12:49:20;;;;;;;15.82;6.18;;;28.00;64.10;;;;;;5073929;28;20538;-80
2021/06/29 12:51:55;;;;;;;12.27;6.10;;;28.20;63.70;;;;;;5074065;28;20039;-80
2021/06/29 12:54:21;;;;;;;12.05;6.18;;;28.40;63.00;;;;;;5073974;28;20048;-80
2021/06/29 12:56:52;;;;;;;9.85;5.30;;;28.60;62.30;;;;;;5073765;28;20059;-80
2021/06/29 12:59:20;;;;;;;7.75;5.40;;;28.80;61.50;;;;;;5073866;28;20077;-79